Terminal Aerodrome Forecast
Issued by NWS Central Illinois

Home | Current Version | Previous Version | Text Only | Print | Product List | Glossary On
Versions: 1 2 3 4 5 6 7 8 9 10 11 12 13 14
000
FTUS43 KILX 241134
TAFPIA
TAF
KPIA 241134Z 2412/2512 12006KT P6SM OVC070
     FM241800 18015G23KT 6SM -SHRA VCTS BKN030CB
     FM250000 18015KT P6SM SCT030 BKN060
     FM250300 16012KT 5SM -SHRA VCTS BKN025CB=

USA.gov is the U.S. government's official web portal to all federal, state and local government web resources and services.